createdAt,value
2022-08-21T00:04:57.627Z,57.52
2022-08-21T00:10:05.099Z,57.59
2022-08-21T00:15:12.023Z,57.70
2022-08-21T00:20:18.568Z,57.81
2022-08-21T00:25:26.094Z,57.91
2022-08-21T00:30:32.671Z,58.00
2022-08-21T00:35:40.604Z,58.10
2022-08-21T00:40:47.937Z,58.20
2022-08-21T00:45:54.754Z,58.29
2022-08-21T00:51:02.719Z,58.39
2022-08-21T00:56:10.454Z,58.50
2022-08-21T01:01:17.307Z,58.62
2022-08-21T01:06:24.603Z,58.72
2022-08-21T01:11:30.188Z,58.83
2022-08-21T01:16:35.851Z,58.95
2022-08-21T01:21:41.331Z,59.06
2022-08-21T01:26:48.750Z,59.18
2022-08-21T01:31:54.957Z,59.30
2022-08-21T01:37:00.344Z,59.41
2022-08-21T01:42:06.129Z,59.50
2022-08-21T01:47:13.046Z,59.59
2022-08-21T01:52:19.058Z,59.66
2022-08-21T01:57:26.127Z,59.76
2022-08-21T02:02:32.136Z,59.84
2022-08-21T02:07:40.736Z,59.92
2022-08-21T02:12:46.244Z,60.00
2022-08-21T02:17:52.930Z,60.08
2022-08-21T02:22:58.904Z,60.16
2022-08-21T02:28:06.552Z,60.26
2022-08-21T02:33:13.120Z,60.35
2022-08-21T02:38:20.278Z,60.43
2022-08-21T02:43:28.847Z,60.51
2022-08-21T02:48:34.860Z,60.59
2022-08-21T02:53:41.217Z,60.68
2022-08-21T02:58:47.730Z,60.77
2022-08-21T03:03:53.086Z,60.85
2022-08-21T03:08:59.084Z,60.93
2022-08-21T03:14:06.453Z,61.02
2022-08-21T03:19:12.026Z,61.16
2022-08-21T03:24:17.462Z,61.33
2022-08-21T03:29:26.625Z,61.46
2022-08-21T03:34:31.924Z,61.58
2022-08-21T03:39:37.935Z,61.71
2022-08-21T03:44:43.696Z,61.82
2022-08-21T03:49:49.313Z,61.94
2022-08-21T03:54:55.669Z,62.06
2022-08-21T04:00:01.036Z,62.19
2022-08-21T04:05:07.882Z,62.30
2022-08-21T04:10:13.965Z,62.42
2022-08-21T04:15:19.794Z,62.55
2022-08-21T04:20:26.364Z,62.67
2022-08-21T04:25:31.847Z,62.82
2022-08-21T04:30:37.356Z,62.95
2022-08-21T04:35:43.473Z,63.08
2022-08-21T04:40:49.688Z,63.22
2022-08-21T04:45:56.181Z,63.37
2022-08-21T04:51:03.455Z,63.49
2022-08-21T04:56:11.149Z,63.60
2022-08-21T05:01:18.674Z,63.69
2022-08-21T05:06:24.739Z,63.72
2022-08-21T05:11:30.339Z,63.58
2022-08-21T05:16:37.441Z,63.39
2022-08-21T05:21:45.512Z,63.29
2022-08-21T05:26:50.670Z,63.26
2022-08-21T05:31:56.069Z,63.28
2022-08-21T05:37:06.887Z,63.28
2022-08-21T05:42:13.544Z,63.31
2022-08-21T05:47:19.214Z,63.34
2022-08-21T05:52:25.362Z,63.36
2022-08-21T05:57:30.964Z,63.34
2022-08-21T06:02:36.269Z,63.34
2022-08-21T06:07:41.675Z,63.33
2022-08-21T06:12:47.461Z,63.32
2022-08-21T06:17:53.026Z,63.28
2022-08-21T06:22:58.805Z,63.22
2022-08-21T06:28:08.586Z,63.16
2022-08-21T06:33:14.160Z,63.09
2022-08-21T06:38:23.682Z,63.02
2022-08-21T06:43:37.860Z,62.95
2022-08-21T06:48:45.562Z,62.91
2022-08-21T06:53:51.440Z,62.87
2022-08-21T06:58:56.948Z,62.82
2022-08-21T07:04:02.321Z,62.77
2022-08-21T07:09:08.208Z,62.78
2022-08-21T07:14:20.396Z,62.77
2022-08-21T07:19:28.116Z,62.77
2022-08-21T07:24:33.826Z,62.74
2022-08-21T07:29:39.570Z,62.67
2022-08-21T07:34:45.024Z,62.58
2022-08-21T07:39:52.435Z,62.48
2022-08-21T07:44:59.210Z,62.38
2022-08-21T07:50:04.751Z,62.31
2022-08-21T07:55:11.399Z,62.25
2022-08-21T08:00:19.498Z,62.16
2022-08-21T08:05:25.812Z,62.05
2022-08-21T08:10:31.420Z,61.95
2022-08-21T08:15:37.682Z,61.82
2022-08-21T08:20:43.477Z,61.70
2022-08-21T08:25:48.903Z,61.56
2022-08-21T08:30:54.495Z,61.42
2022-08-21T08:36:02.349Z,61.30
2022-08-21T08:41:14.545Z,61.16
2022-08-21T08:46:22.627Z,60.99
2022-08-21T08:51:33.004Z,60.83
2022-08-21T08:56:38.690Z,60.69
2022-08-21T09:01:45.201Z,60.50
2022-08-21T09:06:58.983Z,60.25
2022-08-21T09:12:06.843Z,59.96
2022-08-21T09:17:19.692Z,59.71
2022-08-21T09:22:32.138Z,59.46
2022-08-21T09:27:38.073Z,59.23
2022-08-21T09:32:44.230Z,58.98
2022-08-21T09:37:51.745Z,58.72
2022-08-21T09:43:01.182Z,58.43
2022-08-21T09:48:13.585Z,58.11
2022-08-21T09:53:23.630Z,57.77
2022-08-21T09:58:35.103Z,57.49
2022-08-21T10:03:40.779Z,57.24
2022-08-21T10:08:46.126Z,57.08
2022-08-21T10:13:56.703Z,56.98
2022-08-21T10:19:11.267Z,56.85
2022-08-21T10:24:31.585Z,56.78
2022-08-21T10:29:45.480Z,56.67
2022-08-21T10:34:57.257Z,56.41
2022-08-21T10:40:08.541Z,56.19
2022-08-21T10:45:19.558Z,55.99
2022-08-21T10:50:31.100Z,55.85
2022-08-21T10:55:37.948Z,55.71
2022-08-21T11:00:46.331Z,55.56
2022-08-21T11:05:54.512Z,55.40
2022-08-21T11:11:02.419Z,55.23
2022-08-21T11:16:15.026Z,55.09
2022-08-21T11:21:32.883Z,54.95
2022-08-21T11:26:41.878Z,54.81
2022-08-21T11:31:54.121Z,54.64
2022-08-21T11:37:02.834Z,54.58
2022-08-21T11:42:13.787Z,54.49
2022-08-21T11:47:22.523Z,54.44
2022-08-21T11:52:29.116Z,54.37
2022-08-21T11:57:38.026Z,54.33
2022-08-21T12:02:45.696Z,54.25
2022-08-21T12:08:02.288Z,54.08
2022-08-21T12:13:13.718Z,53.95
2022-08-21T12:18:27.055Z,53.77
2022-08-21T12:23:34.235Z,53.61
2022-08-21T12:28:39.847Z,53.48
2022-08-21T12:33:45.599Z,53.35
2022-08-21T12:38:53.829Z,53.20
2022-08-21T12:44:01.782Z,53.06
2022-08-21T12:49:11.714Z,52.93
2022-08-21T12:54:24.775Z,52.85
2022-08-21T12:59:30.875Z,52.79
2022-08-21T13:04:40.402Z,52.80
2022-08-21T13:09:49.391Z,52.80
2022-08-21T13:14:57.994Z,52.82
2022-08-21T13:20:05.277Z,52.84
2022-08-21T13:25:12.595Z,52.86
2022-08-21T13:30:24.636Z,52.94
2022-08-21T13:35:33.118Z,53.04
2022-08-21T13:40:45.795Z,53.11
2022-08-21T13:45:52.578Z,53.19
2022-08-21T13:50:58.647Z,53.27
2022-08-21T13:56:04.858Z,53.35
2022-08-21T14:01:20.790Z,53.43
2022-08-21T14:06:27.684Z,53.47
2022-08-21T14:11:37.296Z,53.52
2022-08-21T14:16:47.440Z,53.58
2022-08-21T14:21:53.086Z,53.63
2022-08-21T14:26:59.675Z,53.61
2022-08-21T14:32:21.764Z,53.54
2022-08-21T14:37:30.808Z,53.41
2022-08-21T14:42:36.683Z,53.24
2022-08-21T14:47:45.253Z,53.04
2022-08-21T14:52:50.808Z,52.84
2022-08-21T14:57:57.439Z,52.66
2022-08-21T15:03:02.837Z,52.47
2022-08-21T15:08:08.126Z,52.30
2022-08-21T15:13:14.777Z,52.13
2022-08-21T15:18:21.051Z,52.00
2022-08-21T15:23:26.833Z,51.94
2022-08-21T15:28:32.643Z,51.94
2022-08-21T15:33:38.117Z,51.96
2022-08-21T15:38:45.279Z,51.98
2022-08-21T15:43:51.847Z,51.97
2022-08-21T15:48:59.846Z,51.96
2022-08-21T15:54:05.909Z,52.00
2022-08-21T15:59:16.061Z,52.07
2022-08-21T16:04:25.566Z,52.13
2022-08-21T16:09:31.290Z,52.17
2022-08-21T16:14:38.735Z,52.22
2022-08-21T16:19:44.553Z,52.32
2022-08-21T16:24:50.244Z,52.39
2022-08-21T16:29:55.804Z,52.44
2022-08-21T16:35:02.453Z,52.48
2022-08-21T16:40:09.556Z,52.52
2022-08-21T16:45:16.898Z,52.56
2022-08-21T16:50:25.232Z,52.62
2022-08-21T16:55:30.892Z,52.69
2022-08-21T17:00:36.314Z,52.79
2022-08-21T17:05:42.597Z,52.88
2022-08-21T17:10:49.757Z,52.97
2022-08-21T17:15:55.845Z,53.08
2022-08-21T17:21:01.546Z,53.19
2022-08-21T17:26:07.541Z,53.27
2022-08-21T17:31:18.937Z,53.38
2022-08-21T17:36:31.482Z,53.49
2022-08-21T17:41:37.460Z,53.60
2022-08-21T17:46:43.452Z,53.72
2022-08-21T17:51:49.071Z,53.79
2022-08-21T17:56:55.969Z,53.85
2022-08-21T18:02:03.062Z,53.93
2022-08-21T18:07:09.071Z,54.00
2022-08-21T18:12:15.090Z,54.09
2022-08-21T18:17:22.547Z,54.20
2022-08-21T18:22:28.328Z,54.33
2022-08-21T18:27:34.100Z,54.47
2022-08-21T18:32:39.585Z,54.61
2022-08-21T18:37:45.357Z,54.76
2022-08-21T18:42:55.604Z,54.90
2022-08-21T18:48:04.006Z,55.03
2022-08-21T18:53:24.065Z,55.19
2022-08-21T18:58:33.587Z,55.36
2022-08-21T19:03:39.194Z,55.53
2022-08-21T19:08:44.841Z,55.67
2022-08-21T19:13:51.164Z,55.80
2022-08-21T19:18:58.250Z,55.98
2022-08-21T19:24:17.352Z,56.17
2022-08-21T19:29:34.533Z,56.38
2022-08-21T19:34:42.067Z,56.65
2022-08-21T19:39:49.983Z,56.99
2022-08-21T19:44:57.815Z,57.28
2022-08-21T19:50:17.824Z,57.50
2022-08-21T19:55:24.170Z,57.72
2022-08-21T20:00:29.825Z,57.96
2022-08-21T20:05:39.787Z,58.22
2022-08-21T20:16:28.464Z,58.78
2022-08-21T20:21:43.610Z,59.00
2022-08-21T20:26:50.299Z,59.17
2022-08-21T20:31:55.874Z,59.36
2022-08-21T20:37:01.541Z,59.61
2022-08-21T20:42:07.483Z,59.79
2022-08-21T20:47:14.203Z,60.01
2022-08-21T20:52:21.134Z,60.20
2022-08-21T20:57:30.048Z,60.32
2022-08-21T21:02:42.186Z,60.36
2022-08-21T21:07:54.572Z,60.44
2022-08-21T21:13:03.508Z,60.54
2022-08-21T21:18:14.094Z,60.73
2022-08-21T21:23:25.274Z,60.72
2022-08-21T21:28:35.125Z,60.74
2022-08-21T21:33:40.820Z,60.93
2022-08-21T21:38:51.933Z,61.22
2022-08-21T21:44:10.726Z,61.54
2022-08-21T21:49:26.756Z,61.77
2022-08-21T21:54:47.192Z,61.91
2022-08-21T21:59:58.875Z,62.07
2022-08-21T22:05:09.832Z,62.25
2022-08-21T22:10:30.524Z,62.30
2022-08-21T22:15:38.024Z,62.32
2022-08-21T22:20:50.306Z,62.42
2022-08-21T22:25:58.279Z,62.57
2022-08-21T22:31:15.614Z,62.71
2022-08-21T22:36:24.426Z,62.89
2022-08-21T22:41:33.918Z,63.10
2022-08-21T22:46:44.051Z,63.41
2022-08-21T22:51:51.551Z,63.73
2022-08-21T22:57:01.904Z,63.98
2022-08-21T23:02:11.363Z,64.27
2022-08-21T23:07:32.822Z,64.65
2022-08-21T23:18:12.336Z,65.48
2022-08-21T23:23:23.438Z,65.82
2022-08-21T23:28:37.361Z,66.13
2022-08-21T23:34:05.769Z,66.42
2022-08-21T23:39:20.330Z,66.74
2022-08-21T23:44:34.540Z,66.99
2022-08-21T23:49:46.121Z,67.22
2022-08-21T23:55:03.650Z,67.43
